Time;durP1;ratioP1;P1;durP2;ratioP2;P2;SDS_P1;SDS_P2;PMS_P1;PMS_P2;Temp;Humidity;BMP_temperature;BMP_pressure;BME280_temperature;BME280_humidity;BME280_pressure;Samples;Min_cycle;Max_cycle;Signal;HPM_P1;HPM_P2
2022/04/17 00:00:00;;;;;;;;;;;7.10;59.90;;;;;;4772564;30;19929;-78
2022/04/17 00:02:26;;;;;;;;;;;7.10;60.10;;;;;;4773111;30;19925;-79
2022/04/17 00:04:52;;;;;;;;;;;7.20;59.90;;;;;;4772477;30;20379;-77
2022/04/17 00:07:18;;;;;;;;;;;7.20;60.50;;;;;;4772744;30;19948;-78
2022/04/17 00:09:44;;;;;;;;;;;6.90;60.40;;;;;;4772832;30;20371;-75
2022/04/17 00:12:10;;;;;;;;;;;7.20;60.70;;;;;;4787689;30;20024;-78
2022/04/17 00:14:36;;;;;;;;;;;6.90;60.40;;;;;;4757955;30;19926;-76
2022/04/17 00:17:02;;;;;;;;;;;6.90;60.20;;;;;;4772394;30;20290;-75
2022/04/17 00:19:27;;;;;;;;;;;6.80;60.50;;;;;;4772323;30;19925;-78
2022/04/17 00:21:53;;;;;;;;;;;6.80;61.10;;;;;;4757954;30;19925;-78
2022/04/17 00:24:19;;;;;;;;;;;6.80;60.90;;;;;;4758047;30;19926;-77
2022/04/17 00:26:44;;;;;;;;;;;7.00;60.30;;;;;;4772642;30;20333;-77
2022/04/17 00:29:10;;;;;;;;;;;7.00;60.80;;;;;;4772700;30;19929;-77
2022/04/17 00:31:35;;;;;;;;;;;6.80;61.30;;;;;;4772206;30;19932;-76
2022/04/17 00:34:01;;;;;;;;;;;6.70;61.20;;;;;;4772311;30;19932;-75
2022/04/17 00:36:26;;;;;;;;;;;6.60;61.00;;;;;;4757444;29;20356;-76
2022/04/17 00:38:52;;;;;;;;;;;6.60;61.40;;;;;;4757784;30;19925;-77
2022/04/17 00:41:17;;;;;;;;;;;6.60;60.90;;;;;;4772544;30;19925;-75
2022/04/17 00:43:44;;;;;;;;;;;6.70;60.90;;;;;;4772513;30;19925;-75
2022/04/17 00:46:10;;;;;;;;;;;6.60;61.00;;;;;;4772368;29;19929;-75
2022/04/17 00:48:35;;;;;;;;;;;6.60;61.00;;;;;;4772558;30;19932;-78
2022/04/17 00:51:01;;;;;;;;;;;6.60;60.80;;;;;;4787292;29;19932;-76
2022/04/17 00:53:27;;;;;;;;;;;6.60;61.30;;;;;;4791244;30;19925;-77
2022/04/17 00:55:53;;;;;;;;;;;6.50;61.50;;;;;;4772172;30;19921;-77
2022/04/17 00:58:19;;;;;;;;;;;6.70;61.20;;;;;;4774880;30;19925;-77
2022/04/17 01:00:45;;;;;;;;;;;6.50;61.40;;;;;;4774912;30;19929;-77
2022/04/17 01:03:12;;;;;;;;;;;6.60;61.40;;;;;;4792399;30;20339;-77
2022/04/17 01:05:41;;;;;;;;;;;6.50;61.00;;;;;;4777418;30;19925;-73
2022/04/17 01:08:10;;;;;;;;;;;6.50;61.10;;;;;;4781152;30;19925;-72
2022/04/17 01:10:37;;;;;;;;;;;6.80;60.70;;;;;;4794269;30;20019;-76
2022/04/17 01:13:03;;;;;;;;;;;6.90;60.60;;;;;;4775403;30;19926;-77
2022/04/17 01:15:29;;;;;;;;;;;6.50;60.50;;;;;;4791279;30;20280;-77
2022/04/17 01:17:54;;;;;;;;;;;6.50;60.60;;;;;;4775085;30;19946;-75
2022/04/17 01:20:21;;;;;;;;;;;6.70;60.60;;;;;;4802125;29;19909;-75
2022/04/17 01:22:47;;;;;;;;;;;6.90;60.60;;;;;;4799243;29;19909;-77
2022/04/17 01:27:58;;;;;;;;;;;6.70;60.10;;;;;;4779967;29;19946;-76
2022/04/17 01:30:23;;;;;;;;;;;6.50;60.20;;;;;;4775166;30;19925;-77
2022/04/17 01:32:49;;;;;;;;;;;6.90;60.20;;;;;;4789931;30;19986;-76
2022/04/17 01:35:14;;;;;;;;;;;6.80;60.50;;;;;;4790785;30;19925;-77
2022/04/17 01:37:40;;;;;;;;;;;6.60;60.40;;;;;;4774791;30;20018;-75
2022/04/17 01:40:06;;;;;;;;;;;6.50;60.50;;;;;;4789669;30;19975;-76
2022/04/17 01:42:31;;;;;;;;;;;6.40;60.60;;;;;;4774901;30;19973;-75
2022/04/17 01:44:57;;;;;;;;;;;6.40;61.40;;;;;;4774857;30;19965;-75
2022/04/17 01:47:23;;;;;;;;;;;6.40;61.30;;;;;;4774659;30;20406;-72
2022/04/17 01:49:48;;;;;;;;;;;6.30;61.90;;;;;;4774485;30;19925;-74
2022/04/17 01:52:14;;;;;;;;;;;6.30;61.80;;;;;;4774205;30;19925;-74
2022/04/17 01:54:40;;;;;;;;;;;6.50;61.40;;;;;;4759760;30;19929;-75
2022/04/17 01:57:05;;;;;;;;;;;6.50;61.70;;;;;;4774195;30;20028;-75
2022/04/17 01:59:31;;;;;;;;;;;6.30;62.10;;;;;;4774232;30;20317;-74
2022/04/17 02:01:57;;;;;;;;;;;6.20;61.90;;;;;;4774052;30;19943;-74
2022/04/17 02:04:26;;;;;;;;;;;6.50;62.30;;;;;;4773865;30;19921;-74
2022/04/17 02:06:52;;;;;;;;;;;6.30;61.60;;;;;;4773752;30;19929;-74
2022/04/17 02:09:18;;;;;;;;;;;6.20;62.50;;;;;;4774035;30;20082;-74
2022/04/17 02:11:45;;;;;;;;;;;6.20;62.50;;;;;;4774107;30;19932;-76
2022/04/17 02:14:10;;;;;;;;;;;6.20;62.10;;;;;;4773891;30;20008;-75
2022/04/17 02:16:36;;;;;;;;;;;6.50;62.80;;;;;;4774406;29;20016;-75
2022/04/17 02:19:03;;;;;;;;;;;6.20;62.50;;;;;;4775394;30;19929;-72
2022/04/17 02:21:28;;;;;;;;;;;6.20;62.60;;;;;;4780538;30;19932;-72
2022/04/17 02:23:54;;;;;;;;;;;6.60;63.30;;;;;;4776695;30;19927;-74
2022/04/17 02:26:20;;;;;;;;;;;6.50;64.10;;;;;;4788692;29;20272;-76
2022/04/17 02:28:46;;;;;;;;;;;6.00;63.50;;;;;;4773737;30;20265;-75
2022/04/17 02:31:11;;;;;;;;;;;6.10;63.70;;;;;;4773174;30;19926;-74
2022/04/17 02:33:37;;;;;;;;;;;6.00;63.80;;;;;;4774090;30;19933;-75
2022/04/17 02:36:04;;;;;;;;;;;6.00;64.00;;;;;;4773511;30;20395;-78
2022/04/17 02:38:29;;;;;;;;;;;5.90;64.10;;;;;;4773699;30;19929;-76
2022/04/17 02:40:55;;;;;;;;;;;5.80;64.30;;;;;;4773949;30;19961;-74
2022/04/17 02:43:21;;;;;;;;;;;5.80;65.00;;;;;;4773340;30;20299;-75
2022/04/17 02:45:46;;;;;;;;;;;5.80;65.10;;;;;;4773561;30;19925;-76
2022/04/17 02:48:12;;;;;;;;;;;5.80;64.70;;;;;;4773291;30;20389;-75
2022/04/17 02:50:38;;;;;;;;;;;5.80;65.20;;;;;;4773290;30;19922;-74
2022/04/17 02:53:04;;;;;;;;;;;5.70;65.90;;;;;;4773295;30;19927;-75
2022/04/17 02:55:30;;;;;;;;;;;5.70;65.70;;;;;;4773315;30;20367;-74
2022/04/17 02:57:56;;;;;;;;;;;5.60;65.80;;;;;;4773192;30;19925;-73
2022/04/17 03:00:23;;;;;;;;;;;5.60;65.60;;;;;;4789307;30;20302;-76
2022/04/17 03:05:36;;;;;;;;;;;5.80;66.40;;;;;;4760930;30;19974;-77
2022/04/17 03:08:07;;;;;;;;;;;5.50;66.50;;;;;;4773027;30;19925;-74
2022/04/17 03:10:33;;;;;;;;;;;5.40;67.40;;;;;;4789241;30;20348;-75
2022/04/17 03:12:59;;;;;;;;;;;5.40;68.00;;;;;;4772576;30;20020;-75
2022/04/17 03:15:25;;;;;;;;;;;5.30;67.80;;;;;;4758297;30;20062;-74
2022/04/17 03:17:51;;;;;;;;;;;5.30;67.60;;;;;;4772695;30;19997;-74
2022/04/17 03:20:17;;;;;;;;;;;5.30;68.20;;;;;;4772583;30;20418;-75
2022/04/17 03:22:43;;;;;;;;;;;5.30;67.50;;;;;;4772848;30;20303;-73
2022/04/17 03:25:09;;;;;;;;;;;5.20;68.20;;;;;;4773127;30;19925;-74
2022/04/17 03:27:34;;;;;;;;;;;5.20;68.40;;;;;;4773482;30;19925;-75
2022/04/17 03:30:00;;;;;;;;;;;5.20;67.50;;;;;;4774488;30;19942;-76
2022/04/17 03:32:26;;;;;;;;;;;5.20;69.10;;;;;;4778601;30;19978;-72
2022/04/17 03:34:51;;;;;;;;;;;5.20;68.60;;;;;;4793301;30;19930;-74
2022/04/17 03:37:17;;;;;;;;;;;5.20;68.80;;;;;;4772741;30;19980;-75
2022/04/17 03:39:43;;;;;;;;;;;5.50;69.40;;;;;;4758287;30;19931;-74
2022/04/17 03:42:09;;;;;;;;;;;5.20;68.40;;;;;;4772469;30;20107;-78
2022/04/17 03:44:34;;;;;;;;;;;5.20;68.30;;;;;;4772919;30;19981;-74
2022/04/17 03:47:00;;;;;;;;;;;5.20;68.60;;;;;;4772868;30;20024;-75
2022/04/17 03:49:26;;;;;;;;;;;5.20;69.00;;;;;;4772902;30;19932;-75
2022/04/17 03:51:52;;;;;;;;;;;5.40;69.50;;;;;;4772467;30;20299;-75
2022/04/17 03:54:17;;;;;;;;;;;5.30;68.90;;;;;;4772645;30;19973;-76
2022/04/17 03:56:44;;;;;;;;;;;5.20;69.10;;;;;;4757643;29;19930;-74
2022/04/17 03:59:10;;;;;;;;;;;5.50;69.60;;;;;;4772743;30;19929;-73
2022/04/17 04:01:35;;;;;;;;;;;5.20;69.50;;;;;;4772110;30;19974;-75
2022/04/17 04:04:06;;;;;;;;;;;5.10;69.60;;;;;;4772174;30;19925;-74
2022/04/17 04:06:32;;;;;;;;;;;5.10;69.90;;;;;;4771908;29;19921;-75
2022/04/17 04:08:57;;;;;;;;;;;5.00;70.00;;;;;;4772251;30;19932;-73
2022/04/17 04:11:23;;;;;;;;;;;5.00;70.00;;;;;;4772752;30;19933;-75
2022/04/17 04:13:48;;;;;;;;;;;5.10;70.00;;;;;;4787101;30;20348;-76
2022/04/17 04:16:14;;;;;;;;;;;4.90;70.40;;;;;;4771876;30;19929;-76
2022/04/17 04:18:40;;;;;;;;;;;5.00;70.40;;;;;;4771909;29;19925;-75
2022/04/17 04:21:05;;;;;;;;;;;5.00;70.70;;;;;;4787025;30;20299;-76
2022/04/17 04:23:34;;;;;;;;;;;4.90;70.20;;;;;;4772411;30;19926;-75
2022/04/17 04:26:00;;;;;;;;;;;4.90;70.90;;;;;;4759515;30;20280;-75
2022/04/17 04:28:38;;;;;;;;;;;4.90;71.20;;;;;;4760634;30;19921;-76
2022/04/17 04:31:10;;;;;;;;;;;4.80;71.10;;;;;;4775690;30;19922;-76
2022/04/17 04:33:37;;;;;;;;;;;4.80;70.80;;;;;;4775307;30;20016;-75
2022/04/17 04:36:04;;;;;;;;;;;5.00;71.60;;;;;;4775682;30;19925;-74
2022/04/17 04:38:29;;;;;;;;;;;4.80;71.10;;;;;;4775948;30;19993;-74
2022/04/17 04:40:55;;;;;;;;;;;4.80;71.00;;;;;;4776899;30;19979;-71
2022/04/17 04:43:21;;;;;;;;;;;4.80;71.30;;;;;;4778046;30;19921;-74
2022/04/17 04:51:15;;;;;;;;;;;4.70;71.30;;;;;;4775625;30;20421;-76
2022/04/17 04:53:40;;;;;;;;;;;4.80;71.70;;;;;;4775547;30;19983;-73
2022/04/17 04:56:06;;;;;;;;;;;4.80;71.80;;;;;;4775478;30;20314;-78
2022/04/17 04:58:32;;;;;;;;;;;5.10;71.80;;;;;;4775352;30;20355;-76
2022/04/17 05:00:58;;;;;;;;;;;4.80;71.60;;;;;;4775419;30;19925;-74
2022/04/17 05:03:24;;;;;;;;;;;4.70;71.60;;;;;;4775422;30;19926;-74
2022/04/17 05:05:49;;;;;;;;;;;5.00;71.00;;;;;;4775543;30;19929;-74
2022/04/17 05:08:15;;;;;;;;;;;5.20;71.20;;;;;;4775232;30;20252;-74
2022/04/17 05:10:40;;;;;;;;;;;5.10;71.20;;;;;;4772399;29;19916;-76
2022/04/17 05:13:06;;;;;;;;;;;5.10;71.30;;;;;;4784343;29;19930;-73
2022/04/17 05:15:31;;;;;;;;;;;5.00;71.30;;;;;;4784182;29;19934;-73
2022/04/17 05:17:57;;;;;;;;;;;4.90;71.70;;;;;;4762162;30;19929;-74
2022/04/17 05:20:22;;;;;;;;;;;5.20;71.60;;;;;;4759668;30;19989;-73
2022/04/17 05:22:56;;;;;;;;;;;5.00;71.70;;;;;;4775153;30;19930;-75
2022/04/17 05:25:22;;;;;;;;;;;5.20;71.80;;;;;;4760286;30;19979;-75
2022/04/17 05:27:47;;;;;;;;;;;5.00;71.70;;;;;;4774656;30;20403;-76
2022/04/17 05:30:13;;;;;;;;;;;5.10;71.80;;;;;;4774615;30;19981;-75
2022/04/17 05:32:38;;;;;;;;;;;5.20;71.40;;;;;;4774934;30;20075;-74
2022/04/17 05:35:04;;;;;;;;;;;5.30;71.10;;;;;;4759813;30;19926;-76
2022/04/17 05:37:30;;;;;;;;;;;5.50;70.80;;;;;;4759205;30;19936;-75
2022/04/17 05:39:55;;;;;;;;;;;5.60;70.30;;;;;;4788855;29;19929;-74
2022/04/17 05:42:21;;;;;;;;;;;5.80;70.10;;;;;;4777829;29;20021;-77
2022/04/17 05:44:47;;;;;;;;;;;5.90;68.90;;;;;;4777659;29;20355;-74
2022/04/17 05:47:13;;;;;;;;;;;6.10;68.30;;;;;;4792568;29;19982;-75
2022/04/17 05:49:39;;;;;;;;;;;6.40;68.40;;;;;;4792501;29;19925;-74
2022/04/17 05:52:04;;;;;;;;;;;6.40;67.00;;;;;;4792825;29;19928;-73
2022/04/17 05:54:30;;;;;;;;;;;6.50;66.20;;;;;;4777961;29;19928;-73
2022/04/17 05:56:56;;;;;;;;;;;6.70;65.50;;;;;;4778856;29;19982;-78
2022/04/17 05:59:22;;;;;;;;;;;6.80;64.80;;;;;;4777660;29;19925;-78
2022/04/17 06:01:47;;;;;;;;;;;6.90;64.20;;;;;;4777195;29;19925;-77
2022/04/17 06:04:13;;;;;;;;;;;7.10;63.40;;;;;;4792230;29;19932;-76
2022/04/17 06:06:38;;;;;;;;;;;7.10;63.40;;;;;;4792026;29;19925;-73
2022/04/17 06:09:04;;;;;;;;;;;7.30;62.30;;;;;;4792099;29;20363;-76
2022/04/17 06:11:30;;;;;;;;;;;7.40;62.70;;;;;;4777126;29;19967;-74
2022/04/17 06:13:56;;;;;;;;;;;7.40;62.60;;;;;;4776871;29;19921;-73
2022/04/17 06:16:22;;;;;;;;;;;7.60;61.80;;;;;;4791828;29;19921;-74
2022/04/17 06:18:47;;;;;;;;;;;7.70;61.70;;;;;;4792272;29;20426;-76
2022/04/17 06:21:13;;;;;;;;;;;7.80;61.00;;;;;;4808817;29;20287;-77
2022/04/17 06:23:39;;;;;;;;;;;7.80;60.60;;;;;;4777425;29;20020;-73
2022/04/17 06:26:06;;;;;;;;;;;8.00;60.00;;;;;;4792000;29;20066;-75
2022/04/17 06:28:32;;;;;;;;;;;8.10;59.40;;;;;;4776960;29;19921;-74
2022/04/17 06:30:57;;;;;;;;;;;8.10;59.80;;;;;;4791807;29;19974;-74
2022/04/17 06:33:23;;;;;;;;;;;8.10;59.90;;;;;;4776328;29;19928;-73
2022/04/17 06:35:49;;;;;;;;;;;8.20;59.80;;;;;;4776312;29;20384;-73
2022/04/17 06:38:15;;;;;;;;;;;8.30;59.50;;;;;;4776053;29;20340;-76
2022/04/17 06:40:41;;;;;;;;;;;8.40;60.30;;;;;;4776533;29;19928;-74
2022/04/17 06:43:13;;;;;;;;;;;8.40;59.90;;;;;;4776252;29;19921;-73
2022/04/17 06:45:39;;;;;;;;;;;8.70;58.40;;;;;;4790972;29;19921;-73
2022/04/17 06:48:21;;;;;;;;;;;8.70;59.00;;;;;;4790571;29;19921;-76
2022/04/17 06:50:51;;;;;;;;;;;8.70;58.10;;;;;;4791192;29;20017;-72
2022/04/17 06:53:17;;;;;;;;;;;8.80;58.60;;;;;;4790747;29;19921;-75
2022/04/17 06:55:53;;;;;;;;;;;;;;;;;;;;;
2022/04/17 07:01:11;;;;;;;;;;;8.80;57.30;;;;;;4719079;30;20017;-75
2022/04/17 07:03:36;;;;;;;;;;;9.00;57.50;;;;;;4773888;29;20041;-72
2022/04/17 07:06:02;;;;;;;;;;;9.30;57.30;;;;;;4807487;29;19921;-70
2022/04/17 07:08:30;;;;;;;;;;;9.40;56.30;;;;;;4776965;29;19924;-71
2022/04/17 07:10:56;;;;;;;;;;;9.60;55.50;;;;;;4790973;29;19925;-73
2022/04/17 07:13:28;;;;;;;;;;;9.40;56.70;;;;;;4775581;29;19921;-76
2022/04/17 07:16:21;;;;;;;;;;;9.60;55.40;;;;;;4775393;29;19921;-75
2022/04/17 07:22:29;;;;;;;;;;;9.80;55.40;;;;;;4790981;29;19925;-80
2022/04/17 07:27:58;;;;;;;;;;;10.20;55.90;;;;;;4790930;29;19921;-78
2022/04/17 07:30:30;;;;;;;;;;;10.30;56.20;;;;;;4776301;29;20024;-81
2022/04/17 07:33:10;;;;;;;;;;;10.30;55.80;;;;;;4775640;29;20015;-79
2022/04/17 07:35:36;;;;;;;;;;;10.40;56.00;;;;;;4770788;29;19921;-78
2022/04/17 07:38:06;;;;;;;;;;;10.80;55.60;;;;;;4775479;29;19928;-79
2022/04/17 07:40:45;;;;;;;;;;;;;;;;;;;;;
2022/04/17 07:47:00;;;;;;;;;;;10.80;54.20;;;;;;4816349;29;19920;-75
2022/04/17 07:52:34;;;;;;;;;;;11.10;53.40;;;;;;4807215;29;19928;-77
2022/04/17 07:55:03;;;;;;;;;;;11.30;52.60;;;;;;4790709;29;19924;-79
2022/04/17 08:00:32;;;;;;;;;;;11.30;52.40;;;;;;4809752;29;19932;-75
2022/04/17 08:03:20;;;;;;;;;;;11.40;52.20;;;;;;4778997;29;19931;-74
2022/04/17 08:05:46;;;;;;;;;;;11.50;51.00;;;;;;4780544;29;19925;-74
2022/04/17 08:08:31;;;;;;;;;;;;;;;;;;;;;
2022/04/17 08:11:15;;;;;;;;;;;12.00;49.80;;;;;;4791476;29;20025;-74
2022/04/17 08:13:42;;;;;;;;;;;12.10;50.20;;;;;;4779152;29;19978;-76
2022/04/17 08:16:27;;;;;;;;;;;;;;;;;;;;;
2022/04/17 08:19:22;;;;;;;;;;;12.20;50.10;;;;;;4808750;29;20334;-77
2022/04/17 08:21:53;;;;;;;;;;;12.40;50.50;;;;;;4765204;29;20016;-75
2022/04/17 08:24:31;;;;;;;;;;;12.50;51.10;;;;;;4763991;29;19921;-75
2022/04/17 08:27:03;;;;;;;;;;;12.40;50.00;;;;;;4779482;29;19921;-74
2022/04/17 08:29:39;;;;;;;;;;;12.40;49.70;;;;;;4778678;29;19928;-74
2022/04/17 08:32:13;;;;;;;;;;;12.60;49.60;;;;;;4794310;29;19924;-77
2022/04/17 08:34:39;;;;;;;;;;;12.60;48.80;;;;;;4793664;29;19921;-73
2022/04/17 08:37:08;;;;;;;;;;;12.90;46.40;;;;;;4778364;29;20299;-74
2022/04/17 08:53:41;;;;;;;;;;;;;;;;;;;;;
2022/04/17 08:56:41;;;;;;;;;;;13.70;45.90;;;;;;4650529;30;19991;-81
2022/04/17 08:59:09;;;;;;;;;;;13.50;46.40;;;;;;4640336;30;19924;-78
2022/04/17 09:01:46;;;;;;;;;;;13.60;44.90;;;;;;4666340;30;19929;-78
2022/04/17 09:04:21;;;;;;;;;;;13.80;44.80;;;;;;4737368;30;19922;-82
2022/04/17 09:06:56;;;;;;;;;;;13.70;44.80;;;;;;4763948;29;19928;-73
2022/04/17 09:10:09;;;;;;;;;;;13.80;44.90;;;;;;4790034;29;19921;-78
2022/04/17 09:12:39;;;;;;;;;;;13.90;45.20;;;;;;4776315;29;19995;-77
2022/04/17 09:15:07;;;;;;;;;;;14.30;44.50;;;;;;4806618;29;19928;-79
2022/04/17 09:17:33;;;;;;;;;;;14.40;45.10;;;;;;4806627;29;19981;-77
2022/04/17 09:20:00;;;;;;;;;;;14.40;44.40;;;;;;4806179;29;19932;-77
2022/04/17 09:22:44;;;;;;;;;;;14.00;44.60;;;;;;4806396;29;19925;-75
2022/04/17 09:25:13;;;;;;;;;;;14.10;44.30;;;;;;4790591;29;20394;-78
2022/04/17 09:27:42;;;;;;;;;;;14.40;45.90;;;;;;4790592;29;19921;-78
2022/04/17 09:30:23;;;;;;;;;;;14.70;44.30;;;;;;4791134;29;20378;-81
2022/04/17 09:32:52;;;;;;;;;;;14.40;44.20;;;;;;4776254;29;19928;-77
2022/04/17 09:35:21;;;;;;;;;;;14.30;45.00;;;;;;4776229;29;20386;-76
2022/04/17 09:37:58;;;;;;;;;;;14.60;43.40;;;;;;4790865;29;19928;-75
2022/04/17 09:40:33;;;;;;;;;;;14.70;44.10;;;;;;4790182;29;19925;-74
2022/04/17 09:43:15;;;;;;;;;;;14.90;43.10;;;;;;4790219;29;19951;-73
2022/04/17 09:45:57;;;;;;;;;;;15.10;44.10;;;;;;4774640;29;19925;-74
2022/04/17 09:48:23;;;;;;;;;;;15.00;43.10;;;;;;4788960;29;19921;-74
2022/04/17 09:50:48;;;;;;;;;;;15.20;42.60;;;;;;4790969;29;19928;-76
2022/04/17 09:53:34;;;;;;;;;;;15.30;42.50;;;;;;4805362;29;19921;-76
2022/04/17 10:02:47;;;;;;;;;;;14.70;42.20;;;;;;4805961;29;19919;-79
2022/04/17 10:05:14;;;;;;;;;;;15.10;41.60;;;;;;4776018;29;20012;-80
2022/04/17 10:07:43;;;;;;;;;;;15.20;41.00;;;;;;4805613;29;19976;-76
2022/04/17 10:10:38;;;;;;;;;;;15.30;42.40;;;;;;4790082;29;19921;-80
2022/04/17 10:13:04;;;;;;;;;;;15.30;43.30;;;;;;4773987;29;19928;-78
2022/04/17 10:15:30;;;;;;;;;;;15.30;41.80;;;;;;4775956;29;20016;-77
2022/04/17 10:18:32;;;;;;;;;;;15.30;42.50;;;;;;4794302;29;19921;-80
2022/04/17 10:20:58;;;;;;;;;;;15.10;44.10;;;;;;4792855;29;19933;-79
2022/04/17 10:23:25;;;;;;;;;;;15.20;43.70;;;;;;4798571;29;19978;-74
2022/04/17 10:25:50;;;;;;;;;;;15.20;41.90;;;;;;4786880;29;19925;-79
2022/04/17 10:28:17;;;;;;;;;;;15.10;45.40;;;;;;4786719;29;19921;-79
2022/04/17 10:31:01;;;;;;;;;;;15.30;42.40;;;;;;4790398;29;19981;-80
2022/04/17 10:33:27;;;;;;;;;;;15.20;40.90;;;;;;4804693;29;20363;-79
2022/04/17 10:36:11;;;;;;;;;;;15.40;43.20;;;;;;4805254;29;19928;-81
2022/04/17 10:38:36;;;;;;;;;;;15.20;39.60;;;;;;4790245;29;19929;-80
2022/04/17 10:41:04;;;;;;;;;;;15.20;40.40;;;;;;4790009;29;19958;-79
2022/04/17 10:43:41;;;;;;;;;;;15.50;41.50;;;;;;4790337;29;19972;-78
2022/04/17 10:46:17;;;;;;;;;;;15.60;37.30;;;;;;4791006;29;19932;-78
2022/04/17 10:49:06;;;;;;;;;;;15.70;38.20;;;;;;4791893;29;20271;-82
2022/04/17 10:51:59;;;;;;;;;;;;;;;;;;;;;
2022/04/17 10:55:24;;;;;;;;;;;15.70;40.30;;;;;;4809196;29;19920;-79
2022/04/17 10:58:53;;;;;;;;;;;15.80;40.40;;;;;;4751799;30;19926;-76
2022/04/17 11:06:22;;;;;;;;;;;15.80;37.30;;;;;;4719350;30;19930;-79
2022/04/17 11:15:10;;;;;;;;;;;15.70;40.50;;;;;;4673893;30;20390;-76
2022/04/17 11:17:41;;;;;;;;;;;15.90;37.50;;;;;;4654168;30;19934;-78
2022/04/17 11:20:07;;;;;;;;;;;15.60;38.60;;;;;;4710451;30;19926;-75
2022/04/17 11:22:33;;;;;;;;;;;15.90;37.80;;;;;;4773092;29;20024;-78
2022/04/17 11:25:02;;;;;;;;;;;15.70;37.70;;;;;;4771540;30;19921;-78
2022/04/17 11:27:47;;;;;;;;;;;16.00;38.20;;;;;;4785563;30;19921;-75
2022/04/17 11:37:27;;;;;;;;;;;16.10;37.00;;;;;;4748652;30;19952;-70
2022/04/17 11:40:45;;;;;;;;;;;16.00;35.50;;;;;;4732330;30;19922;-73
2022/04/17 11:46:13;;;;;;;;;;;16.10;35.50;;;;;;4749475;30;19921;-72
2022/04/17 11:48:42;;;;;;;;;;;16.00;35.70;;;;;;4734162;30;20326;-79
2022/04/17 11:51:18;;;;;;;;;;;15.90;36.10;;;;;;4778079;30;19929;-75
2022/04/17 12:03:38;;;;;;;14.75;5.00;;;16.40;47.80;;;;;;5088631;27;20405;-39
2022/04/17 12:06:06;;;;;;;13.00;3.72;;;17.00;48.80;;;;;;5087353;28;20052;-40
2022/04/17 12:08:40;;;;;;;15.30;3.95;;;17.50;48.50;;;;;;5085972;28;20052;-51
2022/04/17 12:11:07;;;;;;;10.02;3.75;;;17.90;47.90;;;;;;5087790;28;20090;-44
2022/04/17 12:13:33;;;;;;;13.88;4.38;;;18.30;47.00;;;;;;5087730;28;20048;-40
2022/04/17 12:16:04;;;;;;;12.40;3.72;;;18.70;46.20;;;;;;5088686;28;20045;-44
2022/04/17 12:32:30;;;;;;;7.70;4.78;;;18.80;37.20;;;;;;6028541;21;6558602;-75
2022/04/17 12:55:34;;;;;;;6.75;4.57;;;16.60;33.90;;;;;;5124339;27;20100;-67
2022/04/17 12:58:04;;;;;;;7.38;4.65;;;16.50;35.40;;;;;;5114065;28;20040;-72
2022/04/17 13:00:33;;;;;;;7.65;4.90;;;16.80;35.50;;;;;;5113613;28;20041;-68
2022/04/17 13:03:09;;;;;;;7.78;3.95;;;16.90;35.40;;;;;;5093283;28;20048;-70
2022/04/17 13:05:35;;;;;;;8.23;4.78;;;16.90;35.60;;;;;;5111953;28;20072;-69
2022/04/17 13:20:55;;;;;;;7.50;4.30;;;16.80;35.30;;;;;;5138942;27;20427;-69
2022/04/17 13:23:20;;;;;;;5.97;4.50;;;17.10;33.70;;;;;;5130789;28;20104;-70
2022/04/17 13:25:46;;;;;;;5.80;4.22;;;17.30;37.30;;;;;;5130631;28;20439;-70
2022/04/17 13:28:12;;;;;;;7.10;4.15;;;17.30;36.70;;;;;;5131510;27;20501;-69
2022/04/17 13:30:38;;;;;;;9.20;4.78;;;17.60;35.50;;;;;;5130481;28;20046;-70
2022/04/17 13:33:03;;;;;;;9.18;5.20;;;17.50;34.60;;;;;;5130292;28;20039;-69
2022/04/17 13:35:29;;;;;;;6.13;4.15;;;17.70;36.50;;;;;;5113444;28;20083;-70
2022/04/17 13:38:13;;;;;;;6.72;4.25;;;17.50;35.00;;;;;;5130149;28;20054;-70
2022/04/17 13:40:38;;;;;;;6.82;4.20;;;17.60;34.40;;;;;;5115892;28;20039;-69
2022/04/17 13:43:04;;;;;;;7.93;3.65;;;17.60;35.60;;;;;;5096223;28;20130;-70
2022/04/17 13:45:30;;;;;;;7.30;4.57;;;17.80;34.50;;;;;;5131268;27;20044;-69
2022/04/17 13:47:55;;;;;;;7.50;3.88;;;17.80;36.00;;;;;;5129544;28;20047;-69
2022/04/17 13:50:21;;;;;;;6.78;3.97;;;17.90;35.80;;;;;;5129289;28;20090;-69
2022/04/17 13:52:47;;;;;;;5.97;4.15;;;17.90;33.90;;;;;;5131046;28;20039;-69
2022/04/17 13:55:18;;;;;;;4.85;3.50;;;17.80;32.90;;;;;;5129806;28;20127;-68
2022/04/17 13:57:45;;;;;;;7.30;3.50;;;17.80;33.20;;;;;;5129906;28;20035;-68
2022/04/17 14:00:12;;;;;;;7.07;3.60;;;17.60;32.20;;;;;;5130788;27;20044;-69
2022/04/17 14:03:06;;;;;;;5.78;3.53;;;17.70;33.50;;;;;;5130751;27;20043;-72
2022/04/17 14:05:32;;;;;;;6.30;3.53;;;17.90;32.90;;;;;;5098603;28;20063;-69
2022/04/17 14:07:58;;;;;;;7.72;3.70;;;18.00;33.50;;;;;;5116137;28;20031;-69
2022/04/17 14:10:24;;;;;;;5.97;3.78;;;17.90;35.00;;;;;;5119170;28;20035;-69
2022/04/17 14:12:50;;;;;;;;;;;18.00;33.80;;;;;;5103750;28;20074;-70
2022/04/17 14:15:16;;;;;;;6.28;3.40;;;18.00;33.90;;;;;;5102063;28;19919;-70
2022/04/17 14:17:46;;;;;;;7.10;3.83;;;18.10;34.10;;;;;;5115378;28;20440;-75
2022/04/17 14:20:12;;;;;;;4.78;3.58;;;18.00;34.00;;;;;;5113426;27;20048;-68
2022/04/17 14:22:41;;;;;;;4.80;3.50;;;17.90;33.70;;;;;;5085085;28;20097;-69
2022/04/17 14:25:06;;;;;;;6.10;4.13;;;18.00;33.50;;;;;;5105029;28;20044;-68
2022/04/17 14:27:32;;;;;;;5.38;3.63;;;17.80;34.10;;;;;;5090857;28;20078;-68
2022/04/17 14:29:58;;;;;;;8.88;3.95;;;17.70;35.00;;;;;;5101642;28;20075;-68
2022/04/17 14:32:23;;;;;;;;;;;18.00;36.00;;;;;;5102188;28;20064;-70
2022/04/17 14:34:49;;;;;;;7.50;3.78;;;18.20;36.20;;;;;;5104765;28;19920;-68
2022/04/17 14:37:15;;;;;;;;;;;18.10;32.60;;;;;;5078043;28;20077;-68
2022/04/17 14:39:41;;;;;;;5.45;3.65;;;18.30;34.80;;;;;;5106894;28;20273;-69
2022/04/17 14:42:07;;;;;;;6.13;3.80;;;18.20;34.30;;;;;;5103945;28;20127;-69
2022/04/17 14:44:38;;;;;;;5.78;3.70;;;18.60;33.70;;;;;;5101221;28;20069;-69
2022/04/17 14:47:04;;;;;;;6.80;3.60;;;18.70;33.30;;;;;;5104154;28;20036;-67
2022/04/17 14:49:30;;;;;;;8.13;3.78;;;18.70;31.00;;;;;;5104758;28;20162;-68
2022/04/17 14:51:55;;;;;;;;;;;18.40;32.40;;;;;;5093991;28;20434;-68
2022/04/17 14:54:21;;;;;;;8.40;4.22;;;18.20;32.90;;;;;;5110340;28;20326;-68
2022/04/17 14:56:47;;;;;;;;;;;18.30;31.70;;;;;;5101646;28;20051;-70
2022/04/17 14:59:13;;;;;;;6.45;4.13;;;18.40;31.40;;;;;;5102336;28;19926;-68
2022/04/17 15:01:39;;;;;;;;;;;18.50;32.30;;;;;;5103971;28;20043;-69
2022/04/17 15:04:05;;;;;;;6.47;3.70;;;18.50;31.80;;;;;;5104558;28;19915;-69
2022/04/17 15:06:32;;;;;;;5.65;3.45;;;18.80;32.30;;;;;;5108664;28;20095;-69
2022/04/17 15:08:57;;;;;;;5.63;3.40;;;18.80;33.10;;;;;;5084036;28;20042;-70
2022/04/17 15:11:23;;;;;;;;;;;19.00;32.90;;;;;;5102145;28;20043;-68
2022/04/17 15:13:55;;;;;;;6.18;3.30;;;18.90;31.70;;;;;;5095505;28;19926;-67
2022/04/17 15:16:22;;;;;;;6.95;3.38;;;18.90;30.60;;;;;;5091070;28;20048;-68
2022/04/17 15:18:48;;;;;;;6.30;3.53;;;19.00;30.80;;;;;;5103795;28;20127;-69
2022/04/17 15:21:14;;;;;;;;;;;18.90;30.70;;;;;;5103568;28;20094;-69
2022/04/17 15:23:39;;;;;;;5.20;3.05;;;19.20;30.70;;;;;;5086150;28;19926;-69
2022/04/17 15:26:06;;;;;;;;;;;18.90;32.40;;;;;;5066558;28;20485;-69
2022/04/17 15:28:32;;;;;;;5.47;3.50;;;19.30;31.60;;;;;;5076889;28;20397;-74
2022/04/17 15:30:58;;;;;;;;;;;19.30;30.20;;;;;;5094281;28;20282;-70
2022/04/17 15:33:23;;;;;;;13.85;3.67;;;19.30;30.70;;;;;;5075931;28;19927;-70
2022/04/17 15:35:49;;;;;;;;;;;19.60;31.40;;;;;;5095480;28;20048;-69
2022/04/17 15:38:15;;;;;;;5.55;3.47;;;19.90;30.00;;;;;;5093885;28;19920;-68
2022/04/17 15:40:40;;;;;;;;;;;19.50;29.30;;;;;;5094358;28;20078;-69
2022/04/17 15:48:35;;;;;;;5.75;3.70;;;19.40;30.40;;;;;;5079518;28;20148;-70
2022/04/17 15:51:04;;;;;;;;;;;19.00;31.40;;;;;;5077166;28;20084;-70
2022/04/17 15:53:30;;;;;;;6.78;3.53;;;18.50;31.70;;;;;;5094585;28;19920;-69
2022/04/17 15:55:55;;;;;;;;;;;18.00;32.90;;;;;;5094078;28;20040;-70
2022/04/17 15:58:21;;;;;;;7.13;3.78;;;17.80;34.50;;;;;;5093550;28;20010;-71
2022/04/17 16:00:46;;;;;;;;;;;17.70;36.40;;;;;;5093901;28;20087;-71
2022/04/17 16:03:15;;;;;;;6.40;3.78;;;17.30;34.00;;;;;;5093286;28;19927;-73
2022/04/17 16:05:41;;;;;;;7.05;4.10;;;17.30;35.60;;;;;;5094283;28;20051;-74
2022/04/17 16:08:07;;;;;;;6.57;3.83;;;17.40;35.90;;;;;;5076547;28;20481;-77
2022/04/17 16:11:28;;;;;;;7.65;4.13;;;17.00;36.20;;;;;;5076016;28;20052;-75
2022/04/17 16:14:09;;;;;;;10.75;4.45;;;16.80;37.60;;;;;;5092915;28;20058;-73
2022/04/17 16:17:12;;;;;;;6.07;3.80;;;16.80;36.60;;;;;;5076592;28;20053;-77
2022/04/17 16:20:24;;;;;;;8.35;4.03;;;16.80;35.60;;;;;;5073393;28;20040;-72
2022/04/17 16:23:05;;;;;;;9.48;4.43;;;16.80;35.00;;;;;;5075154;28;20047;-74
2022/04/17 16:26:13;;;;;;;8.27;4.53;;;16.50;36.50;;;;;;5075473;28;20445;-78
2022/04/17 16:28:42;;;;;;;7.28;4.47;;;16.50;37.10;;;;;;5059185;28;20048;-77
2022/04/17 16:31:08;;;;;;;10.98;4.47;;;16.40;37.70;;;;;;5057984;28;20040;-76
2022/04/17 16:34:17;;;;;;;9.15;5.00;;;16.40;36.90;;;;;;5075020;28;20052;-77